Time;durP1;ratioP1;P1;durP2;ratioP2;P2;SDS_P1;SDS_P2;PMS_P1;PMS_P2;Temp;Humidity;BMP_temperature;BMP_pressure;BME280_temperature;BME280_humidity;BME280_pressure;Samples;Min_cycle;Max_cycle;Signal;HPM_P1;HPM_P2
2023/07/22 00:04:27;;;;;;;5.00;4.10;;;;;;;20.66;68.30;98490.77;223654;182;139659;-64
2023/07/22 00:09:33;;;;;;;6.10;3.90;;;;;;;20.59;68.56;98497.89;223686;182;137753;-63
2023/07/22 00:14:41;;;;;;;8.90;4.20;;;;;;;20.56;69.17;98497.09;223651;181;145349;-63
2023/07/22 00:19:44;;;;;;;7.40;4.50;;;;;;;20.58;69.40;98498.02;223684;181;138910;-64
2023/07/22 00:24:48;;;;;;;8.50;4.80;;;;;;;20.62;69.39;98502.71;223749;181;140194;-64
2023/07/22 00:29:52;;;;;;;6.50;4.60;;;;;;;20.63;69.67;98504.63;223678;181;145181;-63
2023/07/22 00:34:55;;;;;;;8.40;5.10;;;;;;;20.57;70.04;98493.42;223676;181;138978;-63
2023/07/22 00:39:58;;;;;;;6.90;5.40;;;;;;;20.53;70.30;98488.70;223613;181;136787;-63
2023/07/22 01:02:06;;;;;;;10.00;5.80;;;;;;;20.49;71.72;98483.81;222358;189;666131;-63
2023/07/22 01:07:10;;;;;;;10.20;6.20;;;;;;;20.46;72.13;98475.48;223540;183;137345;-62
2023/07/22 02:02:09;;;;;;;8.30;6.70;;;;;;;20.21;73.58;98454.80;221706;193;666077;-63
2023/07/22 02:07:13;;;;;;;10.60;7.00;;;;;;;20.22;73.75;98461.36;223704;183;136752;-63
2023/07/22 02:12:16;;;;;;;13.00;6.90;;;;;;;20.23;74.01;98466.22;223741;182;143278;-63
2023/07/22 02:17:20;;;;;;;10.20;6.90;;;;;;;20.19;74.27;98474.04;223592;183;138793;-63
2023/07/22 02:22:23;;;;;;;10.90;6.40;;;;;;;20.19;74.47;98480.98;223719;182;137364;-64
2023/07/22 02:27:27;;;;;;;9.50;6.10;;;;;;;20.24;74.55;98476.54;223704;183;144970;-63
2023/07/22 02:32:30;;;;;;;10.00;6.90;;;;;;;20.25;74.53;98478.69;223723;183;138502;-64
2023/07/22 02:37:37;;;;;;;10.00;7.00;;;;;;;20.25;74.40;98482.30;223646;183;137293;-61
2023/07/22 02:42:40;;;;;;;10.70;6.50;;;;;;;20.26;74.51;98483.68;223741;182;143768;-63
2023/07/22 02:47:43;;;;;;;8.90;6.30;;;;;;;20.24;74.46;98483.85;223661;182;138741;-64
2023/07/22 02:52:46;;;;;;;8.70;5.30;;;;;;;20.22;74.39;98486.09;223648;182;137336;-62
2023/07/22 02:57:50;;;;;;;9.00;5.70;;;;;;;20.27;74.21;98488.94;223695;182;145311;-64
2023/07/22 03:03:04;;;;;;;8.80;5.80;;;;;;;20.27;74.15;98495.30;223634;183;139575;-64
2023/07/22 03:08:08;;;;;;;7.40;6.50;;;;;;;20.25;74.01;98500.00;223491;182;136829;-63
2023/07/22 03:13:11;;;;;;;8.30;6.00;;;;;;;20.24;73.84;98502.39;223724;183;145270;-63
2023/07/22 03:18:14;;;;;;;8.20;5.90;;;;;;;20.25;73.97;98508.51;223605;183;139118;-64
2023/07/22 03:23:17;;;;;;;7.20;5.30;;;;;;;20.28;74.00;98502.66;223644;184;138313;-62
2023/07/22 03:28:21;;;;;;;7.10;5.60;;;;;;;20.35;73.60;98502.86;223661;183;145147;-63
2023/07/22 03:33:24;;;;;;;8.80;5.80;;;;;;;20.43;73.36;98504.70;223610;183;139408;-64
2023/07/22 03:38:27;;;;;;;8.10;5.90;;;;;;;20.46;72.84;98508.41;223607;183;137504;-63
2023/07/22 03:43:30;;;;;;;8.40;5.50;;;;;;;20.42;72.51;98510.03;223664;183;147132;-63
2023/07/22 03:48:34;;;;;;;7.50;5.10;;;;;;;20.33;72.47;98514.73;223626;183;139985;-63
2023/07/22 03:53:37;;;;;;;6.90;4.60;;;;;;;20.31;72.46;98519.63;223682;184;136971;-63
2023/07/22 03:58:40;;;;;;;11.70;5.10;;;;;;;20.33;72.27;98515.86;223659;183;145344;-63
2023/07/22 04:03:45;;;;;;;6.80;5.20;;;;;;;20.32;72.29;98509.74;223703;181;138849;-63
2023/07/22 04:08:49;;;;;;;5.90;4.60;;;;;;;20.27;72.43;98507.83;223680;181;138602;-63
2023/07/22 04:13:52;;;;;;;5.50;4.70;;;;;;;20.24;72.58;98510.16;223729;181;145260;-63
2023/07/22 04:18:55;;;;;;;7.90;4.90;;;;;;;20.23;72.74;98515.55;223759;181;138277;-63
2023/07/22 04:23:58;;;;;;;7.20;4.40;;;;;;;20.25;72.58;98521.24;223705;183;137344;-63
2023/07/22 04:29:02;;;;;;;11.90;4.50;;;;;;;20.27;72.32;98531.98;223685;181;146777;-63
2023/07/22 04:34:06;;;;;;;7.80;4.30;;;;;;;20.20;72.34;98540.48;223716;181;138507;-62
2023/07/22 04:39:09;;;;;;;7.00;5.00;;;;;;;20.15;72.33;98545.97;223708;181;137836;-63
2023/07/22 04:44:12;;;;;;;7.40;5.10;;;;;;;20.15;72.55;98557.88;223755;181;145238;-63
2023/07/22 04:49:17;;;;;;;8.20;5.80;;;;;;;20.13;72.65;98572.81;223607;181;138947;-63
2023/07/22 04:54:21;;;;;;;12.00;7.20;;;;;;;20.08;72.85;98580.95;223652;181;137348;-62
2023/07/22 04:59:24;;;;;;;15.40;9.30;;;;;;;20.00;72.85;98576.24;223779;181;144990;-63
2023/07/22 05:04:27;;;;;;;12.50;10.20;;;;;;;19.98;72.98;98578.22;223702;181;138212;-63
2023/07/22 05:09:30;;;;;;;12.00;10.30;;;;;;;20.03;72.74;98592.48;223768;182;138731;-63
2023/07/22 05:14:34;;;;;;;13.10;10.80;;;;;;;20.10;72.58;98589.52;223714;182;145282;-63
2023/07/22 05:19:37;;;;;;;13.60;11.10;;;;;;;20.15;72.03;98586.50;223681;181;138897;-63
2023/07/22 05:24:40;;;;;;;13.20;11.40;;;;;;;20.19;72.01;98582.95;223731;182;137132;-63
2023/07/22 05:29:45;;;;;;;12.70;10.00;;;;;;;20.25;71.61;98599.73;223679;181;145688;-63
2023/07/22 05:34:48;;;;;;;15.50;9.70;;;;;;;20.26;71.63;98607.65;223699;181;138422;-63
2023/07/22 05:39:51;;;;;;;11.30;10.10;;;;;;;20.33;71.33;98612.41;223681;181;138072;-63
2023/07/22 05:44:55;;;;;;;14.60;10.50;;;;;;;20.35;70.87;98613.54;223675;181;145740;-63
2023/07/22 05:49:58;;;;;;;15.40;10.10;;;;;;;20.30;70.78;98617.17;223714;181;138422;-64
2023/07/22 05:55:02;;;;;;;10.70;8.90;;;;;;;20.26;70.50;98620.27;223863;182;137133;-63
2023/07/22 06:00:08;;;;;;;13.10;9.50;;;;;;;20.26;70.44;98633.73;223719;181;145290;-63
2023/07/22 06:05:16;;;;;;;12.00;9.40;;;;;;;20.26;70.09;98630.29;223682;182;138383;-63
2023/07/22 06:10:19;;;;;;;11.90;9.30;;;;;;;20.26;69.98;98636.46;223716;181;140595;-63
2023/07/22 06:15:23;;;;;;;14.90;10.10;;;;;;;20.21;69.87;98646.73;223669;181;145311;-63
2023/07/22 06:20:27;;;;;;;14.80;9.50;;;;;;;20.13;70.05;98644.52;223783;181;139347;-64
2023/07/22 06:25:30;;;;;;;12.30;8.80;;;;;;;20.14;70.16;98647.34;223775;182;137963;-63
2023/07/22 06:30:34;;;;;;;16.00;11.10;;;;;;;20.20;70.15;98647.56;223669;181;146496;-64
2023/07/22 06:35:37;;;;;;;12.50;11.00;;;;;;;20.25;69.95;98649.70;223718;181;138498;-63
2023/07/22 06:40:40;;;;;;;13.70;10.50;;;;;;;20.29;69.89;98650.10;223720;181;137413;-64
2023/07/22 06:45:44;;;;;;;12.20;10.00;;;;;;;20.34;69.62;98657.89;223725;181;145158;-63
2023/07/22 06:50:50;;;;;;;12.00;8.60;;;;;;;20.32;69.60;98663.48;223767;182;138708;-64
2023/07/22 06:55:54;;;;;;;10.30;9.00;;;;;;;20.36;69.14;98668.13;223685;181;137468;-64
2023/07/22 07:00:57;;;;;;;12.10;9.40;;;;;;;20.42;68.83;98669.33;223685;181;145729;-64
2023/07/22 07:06:01;;;;;;;11.60;9.90;;;;;;;20.48;68.89;98673.90;223668;181;140014;-63
2023/07/22 07:11:04;;;;;;;16.10;9.40;;;;;;;20.51;68.47;98674.39;223698;182;137026;-62
2023/07/22 07:16:26;;;;;;;9.20;8.20;;;;;;;20.47;67.88;98680.58;223632;181;145861;-64
2023/07/22 07:21:29;;;;;;;9.30;7.90;;;;;;;20.55;67.47;98688.66;223661;181;138456;-62
2023/07/22 07:26:33;;;;;;;11.80;8.30;;;;;;;20.76;66.81;98688.51;223802;181;136953;-63
2023/07/22 07:31:39;;;;;;;10.30;8.30;;;;;;;20.84;64.85;98693.89;223665;181;145382;-62
2023/07/22 07:36:42;;;;;;;10.00;8.10;;;;;;;20.83;63.82;98703.63;223723;181;138232;-63
2023/07/22 07:41:45;;;;;;;7.10;5.70;;;;;;;20.82;63.93;98719.34;222873;181;137151;-63
2023/07/22 07:46:49;;;;;;;6.80;5.20;;;;;;;20.85;62.63;98715.46;223738;182;145134;-63
2023/07/22 07:51:52;;;;;;;7.90;4.60;;;;;;;20.86;62.73;98723.41;223677;181;138543;-63
2023/07/22 07:56:55;;;;;;;5.90;4.50;;;;;;;20.94;62.08;98726.32;223714;181;136734;-64
2023/07/22 08:01:58;;;;;;;6.10;4.30;;;;;;;21.08;61.10;98722.33;223765;181;145111;-63
2023/07/22 08:07:04;;;;;;;5.50;4.00;;;;;;;21.23;60.50;98732.73;223808;181;140593;-63
2023/07/22 08:12:08;;;;;;;5.00;3.60;;;;;;;21.34;59.84;98743.97;223784;182;137726;-63
2023/07/22 08:17:11;;;;;;;5.90;3.30;;;;;;;21.32;58.14;98755.67;223710;181;146150;-63
2023/07/22 08:22:14;;;;;;;6.00;3.70;;;;;;;21.31;57.73;98758.13;223589;181;138388;-63
2023/07/22 08:27:18;;;;;;;5.30;3.60;;;;;;;21.36;58.17;98765.38;223798;181;136351;-63
2023/07/22 08:32:21;;;;;;;6.60;3.50;;;;;;;21.39;58.19;98762.86;223724;181;145305;-64
2023/07/22 08:37:24;;;;;;;2.60;2.40;;;;;;;21.47;57.35;98766.31;223818;182;138329;-63
2023/07/22 08:42:30;;;;;;;3.40;2.40;;;;;;;21.57;56.89;98763.45;223758;181;138948;-64
2023/07/22 08:47:34;;;;;;;3.30;2.40;;;;;;;21.64;56.83;98773.05;223747;181;145608;-64
2023/07/22 08:52:38;;;;;;;5.30;2.60;;;;;;;21.73;56.02;98786.13;223745;181;138401;-62
2023/07/22 08:57:41;;;;;;;4.30;2.50;;;;;;;21.76;55.51;98796.48;223744;181;137428;-62
2023/07/22 09:02:45;;;;;;;5.20;2.30;;;;;;;21.78;55.61;98796.78;223539;181;144936;-62
2023/07/22 09:08:07;;;;;;;5.80;2.80;;;;;;;21.86;55.68;98803.27;223641;177;138315;-62
2023/07/22 09:13:12;;;;;;;5.80;2.40;;;;;;;21.94;55.56;98795.73;223711;181;136349;-62
2023/07/22 09:18:16;;;;;;;7.30;2.10;;;;;;;22.04;54.66;98802.04;223743;181;145282;-62
2023/07/22 09:23:37;;;;;;;2.90;2.40;;;;;;;22.02;53.13;98800.45;223690;181;138938;-61
2023/07/22 09:28:55;;;;;;;3.10;2.30;;;;;;;22.11;54.51;98806.83;223769;182;136685;-62
2023/07/22 09:34:11;;;;;;;6.40;2.40;;;;;;;22.28;54.24;98808.27;223669;182;145809;-62
2023/07/22 09:39:14;;;;;;;6.90;2.40;;;;;;;22.43;53.31;98811.33;223722;182;138356;-63
2023/07/22 09:44:18;;;;;;;3.70;2.00;;;;;;;22.57;52.26;98810.09;223675;181;137133;-62
2023/07/22 09:49:21;;;;;;;3.90;2.40;;;;;;;22.69;50.23;98818.43;223874;181;145305;-63
2023/07/22 09:54:29;;;;;;;3.50;2.10;;;;;;;22.75;49.87;98821.73;223637;182;138453;-63
2023/07/22 09:59:33;;;;;;;3.30;2.00;;;;;;;22.80;50.03;98812.36;223711;181;136782;-63
2023/07/22 10:04:38;;;;;;;2.80;2.10;;;;;;;23.01;50.57;98810.88;223567;181;145269;-64
2023/07/22 10:09:42;;;;;;;4.10;2.20;;;;;;;22.98;49.68;98817.47;223635;182;138679;-63
2023/07/22 10:14:46;;;;;;;3.90;2.00;;;;;;;22.95;48.85;98820.91;223731;182;140239;-64
2023/07/22 10:19:52;;;;;;;2.40;2.00;;;;;;;23.08;48.30;98819.92;223725;181;145778;-64
2023/07/22 10:24:57;;;;;;;3.30;1.70;;;;;;;23.28;48.71;98816.02;223735;182;139213;-63
2023/07/22 10:30:00;;;;;;;;;;;;;;;23.59;48.13;98818.39;223737;181;139791;-63
2023/07/22 10:35:08;;;;;;;5.30;1.70;;;;;;;23.75;46.57;98816.25;223761;181;147340;-63
2023/07/22 10:40:30;;;;;;;4.00;1.90;;;;;;;23.90;45.75;98812.43;223759;179;138423;-64
2023/07/22 10:45:39;;;;;;;2.80;1.60;;;;;;;24.07;45.29;98808.03;223733;182;138309;-64
2023/07/22 10:50:53;;;;;;;3.00;1.50;;;;;;;24.20;45.19;98795.88;223768;182;147118;-63
2023/07/22 11:02:29;;;;;;;3.50;1.40;;;;;;;24.48;43.49;98803.71;221224;191;1675469;-63
2023/07/22 11:07:42;;;;;;;3.50;1.50;;;;;;;24.48;44.19;98807.83;223682;183;136332;-63
2023/07/22 11:12:48;;;;;;;3.60;1.30;;;;;;;24.69;43.38;98808.91;223734;183;144316;-61
2023/07/22 11:17:51;;;;;;;2.10;1.40;;;;;;;24.85;42.49;98810.43;223646;181;139096;-63
2023/07/22 11:22:54;;;;;;;2.70;1.40;;;;;;;25.07;42.08;98802.73;223790;181;136173;-63
2023/07/22 11:27:58;;;;;;;2.40;1.50;;;;;;;25.33;41.26;98799.27;223714;180;143662;-64
2023/07/22 11:33:01;;;;;;;2.00;1.30;;;;;;;25.53;40.37;98799.38;223763;182;139948;-63
2023/07/22 11:38:04;;;;;;;4.20;1.50;;;;;;;25.68;39.45;98793.86;223809;181;136877;-63
2023/07/22 11:43:08;;;;;;;2.20;1.40;;;;;;;25.93;39.97;98790.11;223824;182;143521;-63
2023/07/22 11:48:12;;;;;;;2.30;1.60;;;;;;;26.20;39.55;98788.09;223774;181;139492;-65
2023/07/22 11:53:16;;;;;;;2.80;1.80;;;;;;;26.30;38.00;98781.63;223841;181;136557;-64
2023/07/22 11:58:26;;;;;;;3.80;1.60;;;;;;;26.44;37.77;98788.27;223687;182;145083;-64
2023/07/22 12:03:33;;;;;;;3.00;1.70;;;;;;;26.60;37.18;98789.81;223600;182;138352;-64
2023/07/22 12:08:42;;;;;;;5.60;1.60;;;;;;;26.60;36.60;98790.54;223619;182;136811;-62
2023/07/22 12:14:04;;;;;;;4.00;1.60;;;;;;;26.27;36.54;98787.28;223681;182;145554;-62
2023/07/22 12:19:08;;;;;;;2.60;1.70;;;;;;;26.06;37.67;98787.67;223650;183;138917;-63
2023/07/22 12:24:14;;;;;;;2.20;1.60;;;;;;;25.95;37.52;98789.75;223763;183;136069;-63
2023/07/22 12:29:17;;;;;;;3.30;1.60;;;;;;;25.77;37.71;98781.21;223728;182;146934;-65
2023/07/22 12:34:28;;;;;;;3.30;2.10;;;;;;;25.62;38.93;98773.73;223758;182;138752;-65
2023/07/22 12:39:31;;;;;;;3.90;2.10;;;;;;;25.66;39.69;98772.88;223637;182;139059;-63
2023/07/22 12:44:34;;;;;;;2.70;2.00;;;;;;;26.05;39.50;98766.17;223752;182;145008;-64
2023/07/22 12:49:37;;;;;;;3.70;1.70;;;;;;;26.09;39.18;98773.39;223734;183;138134;-63
2023/07/22 12:54:41;;;;;;;4.10;1.70;;;;;;;25.79;38.96;98772.55;223871;183;136603;-63
2023/07/22 12:59:44;;;;;;;3.20;1.80;;;;;;;25.76;39.36;98770.57;223712;182;145716;-63
2023/07/22 13:04:50;;;;;;;2.70;1.90;;;;;;;26.12;39.27;98764.59;223642;181;138180;-63
2023/07/22 13:09:56;;;;;;;1.90;1.60;;;;;;;26.07;38.11;98760.24;223782;182;137009;-63
2023/07/22 13:14:59;;;;;;;2.30;2.00;;;;;;;25.87;38.26;98751.35;223765;181;145770;-63
2023/07/22 13:20:08;;;;;;;2.50;2.00;;;;;;;26.14;39.12;98753.23;223711;181;138362;-63
2023/07/22 13:25:12;;;;;;;3.90;1.90;;;;;;;26.49;38.61;98762.48;223805;181;136978;-63
2023/07/22 13:30:15;;;;;;;4.10;1.80;;;;;;;26.85;37.40;98761.31;223738;182;145366;-63
2023/07/22 13:35:19;;;;;;;2.30;2.10;;;;;;;27.02;35.89;98756.91;223652;182;139445;-62
2023/07/22 13:40:23;;;;;;;5.60;1.90;;;;;;;26.69;35.44;98752.08;223708;181;136599;-63
2023/07/22 13:45:26;;;;;;;2.80;1.70;;;;;;;26.30;35.63;98752.47;223660;182;146403;-63
2023/07/22 13:50:30;;;;;;;2.20;1.80;;;;;;;26.13;35.51;98753.77;223600;181;138868;-62
2023/07/22 13:55:34;;;;;;;6.70;2.40;;;;;;;26.45;33.47;98746.61;223689;181;136594;-62
2023/07/22 14:00:39;;;;;;;3.30;1.90;;;;;;;26.71;33.03;98748.10;223642;181;145616;-63
2023/07/22 14:05:42;;;;;;;;;;;;;;;26.82;32.89;98750.55;223598;181;138295;-64
2023/07/22 14:10:45;;;;;;;2.90;2.20;;;;;;;26.98;32.35;98748.11;223850;181;128998;-63
2023/07/22 14:15:49;;;;;;;2.60;1.70;;;;;;;26.73;32.35;98746.92;223642;181;145839;-62
2023/07/22 14:20:53;;;;;;;4.30;2.20;;;;;;;26.43;32.93;98747.23;223686;181;139855;-63
2023/07/22 14:25:56;;;;;;;7.40;2.50;;;;;;;26.31;33.46;98747.18;223665;181;137364;-65
2023/07/22 14:31:00;;;;;;;3.00;2.00;;;;;;;26.38;33.58;98749.81;223800;181;145200;-63
2023/07/22 14:36:03;;;;;;;2.80;1.80;;;;;;;26.25;33.75;98751.48;223704;181;138488;-64
2023/07/22 14:41:06;;;;;;;2.20;1.70;;;;;;;25.93;34.13;98754.41;223714;182;137556;-64
2023/07/22 14:46:10;;;;;;;3.20;1.70;;;;;;;25.70;34.92;98755.79;223724;181;146054;-63
2023/07/22 14:51:14;;;;;;;3.60;1.60;;;;;;;25.58;35.24;98757.09;223751;181;138992;-64
2023/07/22 15:02:03;;;;;;;3.40;1.80;;;;;;;25.57;34.50;98755.83;221767;193;686986;-63
2023/07/22 15:07:07;;;;;;;3.30;1.80;;;;;;;25.56;34.51;98757.29;223743;183;136048;-65
2023/07/22 15:12:10;;;;;;;2.90;2.00;;;;;;;25.45;34.90;98756.27;223625;183;143285;-63
2023/07/22 15:17:22;;;;;;;4.40;2.10;;;;;;;25.37;35.52;98761.20;223642;183;138681;-63
2023/07/22 15:22:26;;;;;;;5.10;2.10;;;;;;;25.29;35.91;98765.62;223671;183;136628;-65
2023/07/22 15:27:29;;;;;;;3.40;2.00;;;;;;;25.14;35.95;98767.52;223745;182;143518;-66
2023/07/22 15:32:32;;;;;;;3.70;2.20;;;;;;;24.97;36.44;98770.86;223779;183;138095;-64
2023/07/22 15:37:36;;;;;;;3.70;2.20;;;;;;;24.86;37.04;98768.36;223733;183;138670;-64
2023/07/22 15:42:42;;;;;;;3.50;2.00;;;;;;;24.77;37.47;98768.14;223889;181;143529;-63
2023/07/22 15:47:51;;;;;;;2.80;2.30;;;;;;;24.75;37.57;98765.52;223791;180;139949;-65
2023/07/22 15:52:55;;;;;;;3.80;2.30;;;;;;;24.77;37.67;98763.91;223725;180;136527;-63
2023/07/22 15:57:58;;;;;;;3.80;2.40;;;;;;;24.82;38.28;98761.27;223706;181;145110;-65
2023/07/22 16:03:01;;;;;;;4.20;2.20;;;;;;;24.82;38.15;98759.35;223591;181;138413;-63
2023/07/22 16:08:05;;;;;;;2.90;2.10;;;;;;;24.76;38.07;98754.89;223648;181;136809;-63
2023/07/22 16:13:09;;;;;;;4.20;1.90;;;;;;;24.73;38.52;98757.20;223791;181;145558;-65
2023/07/22 16:18:12;;;;;;;2.40;1.90;;;;;;;24.74;38.74;98764.21;223595;181;138754;-64
2023/07/22 16:23:15;;;;;;;3.60;2.10;;;;;;;24.73;38.35;98764.63;223653;182;136294;-64
2023/07/22 16:28:19;;;;;;;3.70;2.50;;;;;;;24.68;38.31;98765.44;223694;181;145376;-64
2023/07/22 16:33:22;;;;;;;5.10;2.40;;;;;;;24.64;38.01;98768.75;223730;181;138098;-65
2023/07/22 16:38:25;;;;;;;4.10;2.20;;;;;;;24.55;37.99;98771.58;223693;181;136530;-66
2023/07/22 16:43:28;;;;;;;3.30;2.30;;;;;;;24.52;38.24;98775.14;223757;181;145388;-64
2023/07/22 16:48:32;;;;;;;3.80;1.90;;;;;;;24.51;38.45;98777.93;223680;181;138314;-67
2023/07/22 16:53:36;;;;;;;3.10;2.20;;;;;;;24.51;38.60;98778.85;223741;181;136941;-63
2023/07/22 16:58:39;;;;;;;3.20;2.20;;;;;;;24.51;38.20;98779.06;223642;181;145128;-66
2023/07/22 17:03:43;;;;;;;4.00;2.20;;;;;;;24.48;38.15;98784.85;223597;181;138858;-64
2023/07/22 17:08:52;;;;;;;6.70;2.40;;;;;;;24.43;38.07;98788.89;223690;181;137061;-65
2023/07/22 17:13:55;;;;;;;3.30;2.40;;;;;;;24.39;38.44;98788.36;223555;181;145328;-64
2023/07/22 17:18:59;;;;;;;3.50;2.30;;;;;;;24.37;38.38;98794.55;223699;182;138140;-64
2023/07/22 17:24:02;;;;;;;3.30;2.50;;;;;;;24.37;38.57;98798.43;223657;181;150098;-63
2023/07/22 17:29:06;;;;;;;5.90;2.40;;;;;;;24.36;38.56;98803.13;223631;181;146106;-59
2023/07/22 17:34:09;;;;;;;5.80;2.40;;;;;;;24.37;38.75;98804.64;223661;181;140009;-66
2023/07/22 17:39:12;;;;;;;5.40;2.50;;;;;;;24.36;38.84;98809.86;223673;182;137274;-67
2023/07/22 17:44:15;;;;;;;6.30;2.40;;;;;;;24.36;39.69;98816.63;223714;181;145907;-70
2023/07/22 17:49:18;;;;;;;3.20;2.30;;;;;;;24.28;40.08;98808.91;223761;181;138843;-68
2023/07/22 17:54:21;;;;;;;6.00;2.40;;;;;;;24.26;39.74;98813.41;223690;181;137204;-67
2023/07/22 17:59:24;;;;;;;4.40;2.50;;;;;;;24.27;39.84;98819.90;223626;181;145757;-65
2023/07/22 18:04:28;;;;;;;3.60;2.20;;;;;;;24.19;40.80;98826.70;223646;181;138213;-66
2023/07/22 18:09:32;;;;;;;3.70;2.40;;;;;;;24.02;41.80;98828.17;223645;182;137287;-65
2023/07/22 18:14:35;;;;;;;6.90;2.60;;;;;;;23.89;42.61;98830.22;223693;181;145432;-66
2023/07/22 18:19:39;;;;;;;4.00;2.80;;;;;;;23.76;43.37;98829.31;223691;181;138410;-67
2023/07/22 18:24:42;;;;;;;10.40;3.10;;;;;;;23.62;43.62;98838.25;223743;182;136315;-62
2023/07/22 18:29:46;;;;;;;9.30;3.10;;;;;;;23.50;43.71;98839.17;223584;181;144997;-62
2023/07/22 18:34:49;;;;;;;6.10;2.80;;;;;;;23.39;44.78;98837.90;223609;181;138180;-62
2023/07/22 18:39:54;;;;;;;7.50;3.10;;;;;;;23.30;44.78;98838.38;223745;181;137159;-63
2023/07/22 18:44:57;;;;;;;9.00;3.50;;;;;;;23.22;45.84;98841.02;223652;181;147055;-63
2023/07/22 18:50:02;;;;;;;4.20;3.00;;;;;;;23.13;46.42;98844.95;223649;181;139483;-61
2023/07/22 18:55:06;;;;;;;7.10;3.80;;;;;;;23.07;46.29;98849.48;223768;181;139050;-62
2023/07/22 19:00:12;;;;;;;5.00;3.60;;;;;;;23.02;46.77;98851.75;223470;182;145289;-62
2023/07/22 19:05:15;;;;;;;8.10;3.50;;;;;;;22.95;47.49;98859.23;223624;181;138420;-63
2023/07/22 19:10:19;;;;;;;5.20;3.70;;;;;;;22.89;47.37;98865.51;223780;181;136724;-62
2023/07/22 19:15:22;;;;;;;5.70;3.90;;;;;;;22.81;47.88;98868.77;223693;181;145355;-63
2023/07/22 19:20:25;;;;;;;5.80;3.70;;;;;;;22.74;48.13;98879.34;223733;181;138971;-63
2023/07/22 19:25:29;;;;;;;4.90;3.60;;;;;;;22.66;48.41;98883.55;223728;181;137118;-63
2023/07/22 19:30:39;;;;;;;6.40;3.50;;;;;;;22.57;48.63;98882.40;223675;181;145778;-63
2023/07/22 19:35:42;;;;;;;5.80;4.00;;;;;;;22.51;49.14;98891.55;223695;181;138943;-63
2023/07/22 19:40:47;;;;;;;5.40;4.10;;;;;;;22.45;49.52;98892.05;223681;182;137075;-63
2023/07/22 19:46:02;;;;;;;6.90;4.00;;;;;;;22.40;49.49;98892.30;223632;181;145200;-63
2023/07/22 19:51:07;;;;;;;5.90;4.30;;;;;;;22.37;50.23;98893.53;223663;181;138995;-63
2023/07/22 19:56:11;;;;;;;5.30;4.10;;;;;;;22.32;50.35;98893.67;223639;181;136654;-64
2023/07/22 20:01:19;;;;;;;11.20;4.30;;;;;;;22.31;50.01;98898.61;223777;181;145611;-64
2023/07/22 20:06:43;;;;;;;7.10;4.20;;;;;;;22.25;50.06;98899.05;223696;181;139103;-63
2023/07/22 20:11:46;;;;;;;7.80;4.10;;;;;;;22.23;49.96;98898.76;223701;181;139464;-63
2023/07/22 20:16:49;;;;;;;6.90;4.00;;;;;;;22.19;50.31;98903.37;223535;181;145759;-64
2023/07/22 20:21:52;;;;;;;7.50;4.30;;;;;;;22.11;50.43;98907.61;223626;181;138346;-64
2023/07/22 20:26:55;;;;;;;6.40;4.10;;;;;;;22.03;50.46;98906.15;223680;181;137140;-63
2023/07/22 20:31:58;;;;;;;7.40;4.00;;;;;;;21.95;50.50;98912.14;223716;181;145169;-63
2023/07/22 20:37:02;;;;;;;7.80;4.30;;;;;;;21.86;51.15;98913.48;223727;181;138602;-63
2023/07/22 20:42:06;;;;;;;11.50;4.80;;;;;;;21.78;52.11;98910.06;223714;181;136952;-63
2023/07/22 20:47:10;;;;;;;10.30;5.30;;;;;;;21.68;53.13;98919.84;223739;182;145486;-63
2023/07/22 20:52:13;;;;;;;11.90;6.80;;;;;;;21.59;54.44;98926.45;223657;181;138366;-63
2023/07/22 20:57:20;;;;;;;11.50;6.20;;;;;;;21.52;55.46;98930.80;223758;181;137080;-64
2023/07/22 21:02:23;;;;;;;9.80;5.30;;;;;;;21.39;56.13;98938.09;223663;182;145334;-63
2023/07/22 21:07:27;;;;;;;9.60;6.30;;;;;;;21.32;56.54;98935.83;223787;181;138385;-62
2023/07/22 21:12:30;;;;;;;11.20;6.00;;;;;;;21.25;57.12;98935.17;223721;181;140402;-62
2023/07/22 21:17:34;;;;;;;8.50;6.10;;;;;;;21.19;57.62;98941.35;223680;181;145089;-63
2023/07/22 21:22:37;;;;;;;13.80;6.10;;;;;;;21.14;57.61;98941.59;223682;181;138476;-62
2023/07/22 21:27:42;;;;;;;11.60;6.20;;;;;;;20.98;57.72;98942.52;223724;181;139038;-62
2023/07/22 21:32:50;;;;;;;10.80;6.50;;;;;;;20.82;58.32;98950.76;223646;181;145267;-62
2023/07/22 21:37:54;;;;;;;8.90;6.10;;;;;;;20.72;58.80;98961.39;223621;182;138922;-62
2023/07/22 21:42:57;;;;;;;9.90;5.90;;;;;;;20.63;58.95;98963.79;223642;181;136784;-63
2023/07/22 21:54:28;;;;;;;14.20;5.40;;;;;;;20.44;58.84;98972.07;223591;182;138540;-65
2023/07/22 21:59:34;;;;;;;8.20;5.50;;;;;;;20.36;58.52;98971.27;223659;181;136493;-63
2023/07/22 22:04:37;;;;;;;9.60;5.70;;;;;;;20.28;59.09;98974.53;223619;181;145748;-63
2023/07/22 22:09:40;;;;;;;14.40;5.70;;;;;;;20.23;59.60;98978.47;223688;182;138415;-63
2023/07/22 22:14:43;;;;;;;15.10;6.70;;;;;;;20.22;60.20;98979.92;223666;182;136486;-63
2023/07/22 22:19:47;;;;;;;10.40;7.90;;;;;;;20.17;60.64;98977.88;223634;181;145160;-63
2023/07/22 22:24:50;;;;;;;11.50;7.70;;;;;;;20.14;60.84;98982.70;223748;181;138449;-63
2023/07/22 22:29:53;;;;;;;14.90;7.70;;;;;;;20.06;61.09;98981.30;223636;181;138074;-62
2023/07/22 22:34:57;;;;;;;13.90;7.90;;;;;;;19.98;61.26;98980.86;223660;181;145790;-62
2023/07/22 22:40:00;;;;;;;13.30;7.50;;;;;;;19.92;61.50;98986.96;223602;181;138207;-63
2023/07/22 22:45:03;;;;;;;12.70;7.60;;;;;;;19.92;61.98;98988.92;223648;181;136991;-63
2023/07/22 22:50:07;;;;;;;10.10;7.30;;;;;;;19.84;61.91;98991.10;223682;181;145173;-62
2023/07/22 22:55:11;;;;;;;15.70;7.50;;;;;;;19.83;62.21;98994.88;223653;181;138431;-63
2023/07/22 23:02:09;;;;;;;12.90;7.40;;;;;;;19.85;62.44;98993.73;221819;192;666567;-64
2023/07/22 23:07:12;;;;;;;11.90;7.20;;;;;;;19.83;62.17;98996.16;223625;183;136697;-63
2023/07/22 23:12:15;;;;;;;11.30;7.50;;;;;;;19.73;62.04;98995.73;223590;183;144051;-63
2023/07/22 23:17:18;;;;;;;9.60;7.60;;;;;;;19.62;62.14;98994.09;223632;183;138183;-63
2023/07/22 23:22:21;;;;;;;10.90;7.40;;;;;;;19.44;62.47;98994.06;223628;182;135834;-63
2023/07/22 23:27:25;;;;;;;12.70;7.90;;;;;;;19.30;62.74;98997.98;223829;181;143927;-63
2023/07/22 23:32:28;;;;;;;11.70;7.60;;;;;;;19.21;62.98;99000.86;223468;180;139926;-63
2023/07/22 23:37:31;;;;;;;14.20;8.40;;;;;;;19.10;63.26;98996.83;223643;180;136721;-62
2023/07/22 23:42:34;;;;;;;12.80;6.60;;;;;;;18.97;63.39;98990.05;223984;181;143273;-63
2023/07/22 23:47:38;;;;;;;11.50;6.30;;;;;;;18.91;62.31;98983.64;223765;181;138411;-65
2023/07/22 23:52:41;;;;;;;8.80;6.30;;;;;;;18.93;61.77;98982.72;223975;181;136639;-64
2023/07/22 23:57:44;;;;;;;9.90;6.50;;;;;;;18.85;62.84;98982.64;223720;181;145188;-64
